Terminal Aerodrome Forecast
Issued by NWS Shreveport, LA

Home | Current Version | Previous Version | Text Only | Print | Product List | Glossary On
Versions: 1 2 3 4 5 6 7 8 9 10 11 12 13 14 15 16 17 18
005
FTUS44 KSHV 272325 CCA
TAFGGG
TAF COR
KGGG 272325Z 2800/2824 14010KT P6SM SKC
     FM280900 18012G18KT P6SM BKN025
      TEMPO 2810/2813 OVC015
     FM281500 19016G28KT P6SM SKC
      TEMPO 2815/2819 18014G22KT SCT030=

USA.gov is the U.S. government's official web portal to all federal, state and local government web resources and services.